Euskara    
Meteorología y climatología de Navarra
Datos de la estación - Meteo Navarra

Estación de Getadar GN

Altitud 710 m.


Datos desde el 22/11/2020 hasta el 23/11/2020 en horario solar
Los datos son PROVISIONALES

Anterior Página 1 de 1 Siguiente Descargar: Formato para Excel 2000 o superior   Formato csv   Formato para OpenOffice Calc
Fecha Temperatura Humedad relativa Radiación global Insolación Precipitación Vel. viento 10 m Vel. viento 10 m Dir. viento 10 m
°C % W/m² s l/m² m/s km/h °
22/11/2020 0:00 2.0 80 0.0 0 0.0 1.6 5.6 353
22/11/2020 0:10 1.8 81 0.0 0 0.0 1.4 5.1 340
22/11/2020 0:20 1.9 80 0.0 0 0.0 1.7 6.0 357
22/11/2020 0:30 1.4 84 0.0 0 0.0 1.6 5.8 350
22/11/2020 0:40 1.4 84 0.0 0 0.0 1.7 6.3 354
22/11/2020 0:50 1.3 84 0.0 0 0.0 1.8 6.4 0
22/11/2020 1:00 1.5 84 0.0 0 0.0 1.9 6.9 6
22/11/2020 1:10 1.3 85 0.0 0 0.0 1.8 6.6 3
22/11/2020 1:20 1.4 85 0.0 0 0.0 1.7 6.0 358
22/11/2020 1:30 1.6 84 0.0 0 0.0 1.8 6.6 5
22/11/2020 1:40 1.7 82 0.0 0 0.0 1.7 6.3 360
22/11/2020 1:50 1.6 83 0.0 0 0.0 1.5 5.3 349
22/11/2020 2:00 2.1 80 0.0 0 0.0 1.4 5.1 353
22/11/2020 2:10 1.8 82 0.0 0 0.0 1.6 5.7 353
22/11/2020 2:20 2.1 79 0.0 0 0.0 1.6 5.9 359
22/11/2020 2:30 2.2 77 0.0 0 0.0 1.7 6.0 5
22/11/2020 2:40 2.2 77 0.0 0 0.0 1.6 5.9 357
22/11/2020 2:50 1.9 78 0.0 0 0.0 1.5 5.5 7
22/11/2020 3:00 1.6 79 0.0 0 0.0 1.3 4.8 7
22/11/2020 3:10 1.7 79 0.0 0 0.0 1.1 4.0 348
22/11/2020 3:20 1.8 78 0.0 0 0.0 1.3 4.6 344
22/11/2020 3:30 1.6 79 0.0 0 0.0 1.4 5.2 354
22/11/2020 3:40 1.6 78 0.0 0 0.0 1.3 4.7 6
22/11/2020 3:50 1.2 80 0.0 0 0.0 1.6 5.9 3
22/11/2020 4:00 1.5 78 0.0 0 0.0 1.5 5.2 5
22/11/2020 4:10 1.0 81 0.0 0 0.0 1.6 5.6 3
22/11/2020 4:20 0.9 82 0.0 0 0.0 1.6 5.9 356
22/11/2020 4:30 0.9 82 0.0 0 0.0 1.5 5.5 350
22/11/2020 4:40 1.4 80 0.0 0 0.0 1.6 5.7 360
22/11/2020 4:50 1.1 82 0.0 0 0.0 1.3 4.6 2
22/11/2020 5:00 0.9 82 0.0 0 0.0 1.7 6.0 1
22/11/2020 5:10 0.7 83 0.0 0 0.0 1.6 5.7 2
22/11/2020 5:20 0.9 82 0.0 0 0.0 1.6 5.6 4
22/11/2020 5:30 1.0 81 0.0 0 0.0 1.4 5.1 355
22/11/2020 5:40 1.1 81 0.0 0 0.0 1.7 6.1 7
22/11/2020 5:50 0.9 81 0.0 0 0.0 1.6 5.7 9
22/11/2020 6:00 0.9 81 0.0 0 0.0 1.4 4.9 352
22/11/2020 6:10 0.9 82 0.0 0 0.0 1.6 5.8 1
22/11/2020 6:20 0.5 83 0.0 0 0.0 1.8 6.3 351
22/11/2020 6:30 0.7 83 0.0 0 0.0 1.5 5.3 360
22/11/2020 6:40 0.8 81 0.0 0 0.0 1.6 5.7 356
22/11/2020 6:50 1.0 80 0.0 0 0.0 1.5 5.5 1
22/11/2020 7:00 0.8 81 0.0 0 0.0 1.6 5.9 4
22/11/2020 7:10 0.7 82 3.4 0 0.0 1.8 6.6 5
22/11/2020 7:20 0.3 85 24.7 78 0.0 1.9 6.9 359
22/11/2020 7:30 0.4 85 40.7 600 0.0 2.1 7.4 1
22/11/2020 7:40 0.9 82 61.3 600 0.0 2.6 9.3 8
22/11/2020 7:50 1.4 79 83.8 600 0.0 2.4 8.5 7
22/11/2020 8:00 2.2 75 107.3 600 0.0 1.8 6.6 18
22/11/2020 8:10 2.4 75 130.1 600 0.0 0.3 1.2 29
22/11/2020 8:20 2.6 74 154.7 600 0.0 0.5 1.7 15
22/11/2020 8:30 3.4 73 179.6 600 0.0 0.5 1.9 159
22/11/2020 8:40 3.9 71 204.7 600 0.0 0.5 1.9 177
22/11/2020 8:50 4.3 70 227.6 600 0.0 0.4 1.4 173
22/11/2020 9:00 4.6 69 250.3 600 0.0 0.4 1.3 184
22/11/2020 9:10 5.0 68 273.0 600 0.0 0.8 2.7 192
22/11/2020 9:20 4.9 69 294.7 600 0.0 0.8 2.7 179
22/11/2020 9:30 5.2 68 316.0 600 0.0 1.0 3.7 184
22/11/2020 9:40 5.6 67 336.7 600 0.0 0.5 1.9 176
22/11/2020 9:50 6.1 64 354.2 600 0.0 0.4 1.3 167
22/11/2020 10:00 6.4 63 371.7 600 0.0 0.8 2.7 169
22/11/2020 10:10 6.5 63 388.2 600 0.0 1.1 4.0 178
22/11/2020 10:20 6.6 62 403.9 600 0.0 1.2 4.4 185
22/11/2020 10:30 7.0 61 417.4 600 0.0 0.9 3.3 170
22/11/2020 10:40 7.8 60 429.3 600 0.0 0.6 2.3 152
22/11/2020 10:50 8.0 58 440.3 600 0.0 0.7 2.6 159
22/11/2020 11:00 8.6 58 450.2 600 0.0 0.8 3.0 152
22/11/2020 11:10 9.0 57 458.8 600 0.0 0.9 3.2 148
22/11/2020 11:20 9.1 56 464.8 600 0.0 0.9 3.4 139
22/11/2020 11:30 9.6 55 469.3 600 0.0 0.7 2.7 147
22/11/2020 11:40 9.4 56 473.1 600 0.0 1.0 3.6 166
22/11/2020 11:50 9.8 55 475.1 600 0.0 0.9 3.3 152
22/11/2020 12:00 10.2 54 475.0 600 0.0 1.2 4.3 160
22/11/2020 12:10 10.5 54 473.6 600 0.0 1.1 3.9 163
22/11/2020 12:20 10.5 54 470.6 600 0.0 1.5 5.3 157
22/11/2020 12:30 10.4 55 466.4 600 0.0 1.4 5.0 148
22/11/2020 12:40 10.2 56 459.8 600 0.0 1.0 3.7 140
22/11/2020 12:50 10.1 56 452.5 600 0.0 1.1 3.9 140
22/11/2020 13:00 10.3 56 443.5 600 0.0 1.0 3.5 134
22/11/2020 13:10 10.5 55 432.5 600 0.0 1.0 3.7 136
22/11/2020 13:20 10.6 55 419.8 600 0.0 1.1 3.9 138
22/11/2020 13:30 10.9 54 406.5 600 0.0 1.1 3.9 137
22/11/2020 13:40 10.9 55 392.4 600 0.0 0.8 2.9 141
22/11/2020 13:50 10.8 54 371.3 600 0.0 1.0 3.5 145
22/11/2020 14:00 10.8 54 351.1 600 0.0 0.9 3.3 134
22/11/2020 14:10 10.8 54 329.4 600 0.0 0.9 3.1 136
22/11/2020 14:20 10.8 54 309.7 600 0.0 0.8 2.8 144
22/11/2020 14:30 10.8 54 289.3 600 0.0 1.0 3.7 138
22/11/2020 14:40 10.7 54 269.8 600 0.0 0.9 3.3 132
22/11/2020 14:50 10.9 54 242.6 600 0.0 0.5 1.8 130
22/11/2020 15:00 10.8 53 214.6 600 0.0 0.5 1.9 143
22/11/2020 15:10 10.6 56 199.6 600 0.0 0.6 2.3 163
22/11/2020 15:20 10.4 56 156.2 600 0.0 0.7 2.5 173
22/11/2020 15:30 10.2 58 125.3 600 0.0 0.1 0.2 153
22/11/2020 15:40 10.4 56 131.2 600 0.0 0.1 0.3 194
22/11/2020 15:50 11.3 54 105.1 600 0.0 0.0 0.1 251
22/11/2020 16:00 11.3 54 84.7 600 0.0 0.0 0.1 244
22/11/2020 16:10 10.7 56 58.0 514 0.0 0.1 0.5 213
22/11/2020 16:20 8.6 65 22.6 0 0.0 0.2 0.5 315
22/11/2020 16:30 7.6 69 18.1 0 0.0 0.7 2.4 322
22/11/2020 16:40 7.1 70 3.0 0 0.0 1.1 4.1 342
22/11/2020 16:50 6.3 74 0.0 0 0.0 1.7 6.0 4
22/11/2020 17:00 5.7 75 0.0 0 0.0 1.6 5.7 3
22/11/2020 17:10 5.4 75 0.0 0 0.0 1.9 6.9 6
22/11/2020 17:20 5.2 75 0.0 0 0.0 1.8 6.6 359
22/11/2020 17:30 5.0 74 0.0 0 0.0 2.2 8.0 7
22/11/2020 17:40 4.7 74 0.0 0 0.0 2.2 7.9 8
22/11/2020 17:50 4.6 74 0.0 0 0.0 2.0 7.3 6
22/11/2020 18:00 4.4 73 0.0 0 0.0 2.1 7.5 10
22/11/2020 18:10 4.4 72 0.0 0 0.0 1.7 6.2 11
22/11/2020 18:20 4.4 73 0.0 0 0.0 1.5 5.3 354
22/11/2020 18:30 4.7 72 0.0 0 0.0 1.7 6.1 351
22/11/2020 18:40 4.4 72 0.0 0 0.0 1.7 6.0 357
22/11/2020 18:50 4.1 73 0.0 0 0.0 1.9 6.9 359
22/11/2020 19:00 4.1 72 0.0 0 0.0 2.0 7.1 4
22/11/2020 19:10 4.0 73 0.0 0 0.0 1.9 6.8 358
22/11/2020 19:20 4.3 72 0.0 0 0.0 2.1 7.4 4
22/11/2020 19:30 4.3 72 0.0 0 0.0 1.8 6.6 3
22/11/2020 19:40 4.0 74 0.0 0 0.0 1.9 6.9 357
22/11/2020 19:50 4.1 73 0.0 0 0.0 1.9 6.9 0
22/11/2020 20:00 4.0 74 0.0 0 0.0 1.8 6.6 1
22/11/2020 20:10 4.0 75 0.0 0 0.0 1.9 6.8 360
22/11/2020 20:20 4.2 73 0.0 0 0.0 2.1 7.7 4
22/11/2020 20:30 4.1 74 0.0 0 0.0 2.0 7.2 5
22/11/2020 20:40 4.0 75 0.0 0 0.0 1.8 6.4 1
22/11/2020 20:50 4.0 75 0.0 0 0.0 1.9 6.7 359
22/11/2020 21:00 4.2 74 0.0 0 0.0 1.8 6.4 4
22/11/2020 21:10 4.1 74 0.0 0 0.0 1.8 6.5 7
22/11/2020 21:20 3.9 75 0.0 0 0.0 1.9 6.9 9
22/11/2020 21:30 4.0 75 0.0 0 0.0 1.7 6.3 7
22/11/2020 21:40 4.0 74 0.0 0 0.0 1.4 5.0 10
22/11/2020 21:50 3.8 75 0.0 0 0.0 1.4 5.0 10
22/11/2020 22:00 3.7 76 0.0 0 0.0 1.1 4.0 8
22/11/2020 22:10 3.7 76 0.0 0 0.0 1.3 4.8 2
22/11/2020 22:20 3.4 78 0.0 0 0.0 1.5 5.5 356
22/11/2020 22:30 3.4 77 0.0 0 0.0 1.6 5.7 8
22/11/2020 22:40 3.3 78 0.0 0 0.0 1.5 5.5 360
22/11/2020 22:50 3.3 78 0.0 0 0.0 1.6 5.6 357
22/11/2020 23:00 3.2 78 0.0 0 0.0 1.5 5.4 352
22/11/2020 23:10 3.2 78 0.0 0 0.0 1.7 6.2 7
22/11/2020 23:20 3.2 78 0.0 0 0.0 1.5 5.5 5
22/11/2020 23:30 3.1 79 0.0 0 0.0 1.4 5.1 358
22/11/2020 23:40 3.1 79 0.0 0 0.0 1.6 5.6 3
22/11/2020 23:50 3.1 79 0.0 0 0.0 1.7 6.1 4
Anterior Página 1 de 1 Siguiente

NOTA: Tipo de datos según el color:
   - Valores diarios o 10 minutos correctos
   - Valores diarios calculados a partir de un número de datos 10 minutos menor que 144 y mayor que 120, o de un número de datos semihorarios menor que 48 y mayor que 40 (caso de las estaciones de INTIA Y Ministerio)
   - Valores diez minutos estimados


Contacto        Enlaces        Aviso legal